createdAt,value
2022-08-20T05:48:35.733Z,19.49
2022-08-20T05:52:38.585Z,20.17
2022-08-20T05:56:41.642Z,20.43
2022-08-20T06:00:44.221Z,20.47
2022-08-20T06:04:48.099Z,20.78
2022-08-20T06:08:58.879Z,20.55
2022-08-20T06:13:02.887Z,20.17
2022-08-20T06:17:07.861Z,20.64
2022-08-20T06:21:11.764Z,21.33
2022-08-20T06:25:14.331Z,21.53
2022-08-20T06:29:16.985Z,21.87
2022-08-20T06:33:19.568Z,21.70
2022-08-20T06:37:30.851Z,22.22
2022-08-20T06:41:37.161Z,22.29
2022-08-20T06:45:40.659Z,22.77
2022-08-20T06:49:43.248Z,22.62
2022-08-20T06:53:47.344Z,22.65
2022-08-20T06:57:59.309Z,22.78
2022-08-20T07:02:01.959Z,22.76
2022-08-20T07:06:05.094Z,23.25
2022-08-20T07:10:12.196Z,23.05
2022-08-20T07:14:14.963Z,23.43
2022-08-20T07:18:17.893Z,24.04
2022-08-20T07:22:31.114Z,23.86
2022-08-20T07:26:35.353Z,24.06
2022-08-20T07:30:57.824Z,24.60
2022-08-20T07:35:00.552Z,24.71
2022-08-20T07:39:05.730Z,24.98
2022-08-20T07:43:10.683Z,25.41
2022-08-20T07:47:14.107Z,25.98
2022-08-20T07:51:19.126Z,25.35
2022-08-20T07:55:22.828Z,25.18
2022-08-20T07:59:26.756Z,24.67
2022-08-20T08:03:39.907Z,24.06
2022-08-20T08:07:52.088Z,24.05
2022-08-20T08:11:57.515Z,23.44
2022-08-20T08:16:02.119Z,22.47
2022-08-20T08:20:06.930Z,21.95
2022-08-20T08:24:12.127Z,21.81
2022-08-20T08:28:16.107Z,21.89
2022-08-20T08:32:20.079Z,22.15
2022-08-20T08:36:22.610Z,22.77
2022-08-20T08:40:25.188Z,22.95
2022-08-20T08:44:31.119Z,23.07
2022-08-20T08:48:38.312Z,23.31
2022-08-20T08:52:42.080Z,23.75
2022-08-20T08:56:49.703Z,24.11
2022-08-20T09:00:56.487Z,24.52
2022-08-20T09:05:05.101Z,25.03
2022-08-20T09:09:12.196Z,24.92
2022-08-20T09:13:14.759Z,24.82
2022-08-20T09:17:19.097Z,25.20
2022-08-20T09:21:22.974Z,25.31
2022-08-20T09:25:26.040Z,25.16
2022-08-20T09:29:29.356Z,24.85
2022-08-20T09:33:32.102Z,24.71
2022-08-20T09:37:37.725Z,24.68
2022-08-20T09:41:41.331Z,24.58
2022-08-20T09:45:43.944Z,24.56
2022-08-20T09:49:47.260Z,24.52
2022-08-20T09:53:51.561Z,24.02
2022-08-20T09:57:54.716Z,23.98
2022-08-20T10:01:58.221Z,24.25
2022-08-20T10:06:00.865Z,24.48
2022-08-20T10:10:06.431Z,24.63
2022-08-20T10:14:09.075Z,24.79
2022-08-20T10:18:12.280Z,25.00
2022-08-20T10:22:15.131Z,25.49
2022-08-20T10:26:19.243Z,25.80
2022-08-20T10:30:22.728Z,26.10
2022-08-20T10:34:26.382Z,26.76
2022-08-20T10:38:29.083Z,27.34
2022-08-20T10:42:33.009Z,27.35
2022-08-20T10:46:35.776Z,26.89
2022-08-20T10:50:38.366Z,27.22
2022-08-20T10:54:42.254Z,27.37
2022-08-20T10:58:46.173Z,26.87
2022-08-20T11:02:48.813Z,26.71
2022-08-20T11:06:51.403Z,26.68
2022-08-20T11:10:54.043Z,26.73
2022-08-20T11:14:57.898Z,25.59
2022-08-20T11:19:00.512Z,24.57
2022-08-20T11:23:03.079Z,24.79
2022-08-20T11:27:07.570Z,24.86
2022-08-20T11:31:11.572Z,24.28
2022-08-20T11:35:40.984Z,23.82
2022-08-20T11:39:41.617Z,23.85
2022-08-20T11:43:59.494Z,23.81
2022-08-20T11:48:08.378Z,23.80
2022-08-20T11:52:10.937Z,23.50
2022-08-20T11:56:18.061Z,23.34
2022-08-20T12:00:32.039Z,23.68
2022-08-20T12:04:37.279Z,23.84
2022-08-20T12:08:40.012Z,24.12
2022-08-20T12:12:42.587Z,24.49
2022-08-20T12:16:45.162Z,24.79
2022-08-20T12:20:50.851Z,25.22
2022-08-20T12:24:54.234Z,25.56
2022-08-20T12:28:56.786Z,26.09
2022-08-20T12:32:59.696Z,25.50
2022-08-20T12:37:05.645Z,25.35
2022-08-20T12:41:08.267Z,25.60
2022-08-20T12:45:11.762Z,26.13
2022-08-20T12:49:14.332Z,26.43
2022-08-20T12:53:18.614Z,26.65
2022-08-20T12:57:26.261Z,27.32
2022-08-20T13:01:28.860Z,27.26
2022-08-20T13:05:31.825Z,26.63
2022-08-20T13:09:35.693Z,27.20
2022-08-20T13:13:43.501Z,25.20
2022-08-20T13:17:46.173Z,23.43
2022-08-20T13:21:54.856Z,23.26
2022-08-20T13:25:59.139Z,23.42
2022-08-20T13:30:01.679Z,23.75
2022-08-20T13:34:04.346Z,23.97
2022-08-20T13:38:07.117Z,24.32
2022-08-20T13:42:11.615Z,23.54
2022-08-20T13:46:14.239Z,23.55
2022-08-20T13:50:20.250Z,24.37
2022-08-20T13:54:23.960Z,24.58
2022-08-20T13:58:33.660Z,24.57
2022-08-20T14:02:36.214Z,24.46
2022-08-20T14:06:38.780Z,23.83
2022-08-20T14:10:42.537Z,23.67
2022-08-20T14:14:46.867Z,23.71
2022-08-20T14:18:52.734Z,23.46
2022-08-20T14:22:55.794Z,23.46
2022-08-20T14:26:58.362Z,23.43
2022-08-20T14:31:02.300Z,23.25
2022-08-20T14:35:05.920Z,23.46
2022-08-20T14:39:08.726Z,23.35
2022-08-20T14:43:11.171Z,23.30
2022-08-20T14:47:18.759Z,23.08
2022-08-20T14:51:21.328Z,23.14
2022-08-20T14:55:26.579Z,23.31
2022-08-20T14:59:29.229Z,22.85
2022-08-20T15:03:33.104Z,22.75
2022-08-20T15:07:38.581Z,22.85
2022-08-20T15:11:41.404Z,22.88
2022-08-20T15:15:43.859Z,22.97
2022-08-20T15:19:47.767Z,22.53
2022-08-20T15:23:50.470Z,22.42
2022-08-20T15:27:58.320Z,22.16
2022-08-20T15:32:04.712Z,22.03
2022-08-20T15:36:10.836Z,22.18
2022-08-20T15:40:16.784Z,22.70
2022-08-20T15:44:19.424Z,23.56
2022-08-20T15:48:31.521Z,24.69
2022-08-20T15:52:42.100Z,25.89
2022-08-20T15:56:53.740Z,26.34
2022-08-20T16:01:24.457Z,27.30
2022-08-20T16:05:41.800Z,27.72
2022-08-20T16:10:00.577Z,27.05
2022-08-20T16:14:11.747Z,27.19
2022-08-20T16:18:20.167Z,27.19
2022-08-20T16:22:33.041Z,27.72
2022-08-20T16:26:52.362Z,27.77
2022-08-20T16:31:02.766Z,27.50
2022-08-20T16:35:26.282Z,27.74
2022-08-20T16:39:40.363Z,27.37
2022-08-20T16:43:51.973Z,26.80
2022-08-20T16:48:00.068Z,26.47
2022-08-20T16:52:02.795Z,27.10
2022-08-20T16:56:06.202Z,27.58
2022-08-20T17:00:14.576Z,28.08
2022-08-20T17:04:21.904Z,28.72
2022-08-20T17:08:28.432Z,28.98
2022-08-20T17:12:32.406Z,29.34
2022-08-20T17:16:38.288Z,29.47
2022-08-20T17:20:46.048Z,29.02
2022-08-20T17:24:48.943Z,28.72
2022-08-20T17:28:53.218Z,28.64
2022-08-20T17:33:00.424Z,28.16
2022-08-20T17:37:08.379Z,27.72
2022-08-20T17:41:17.196Z,26.89
2022-08-20T17:45:23.631Z,26.19
2022-08-20T17:49:35.588Z,25.56
2022-08-20T17:53:41.034Z,25.03
2022-08-20T17:57:46.272Z,24.36
2022-08-20T18:01:58.366Z,24.15
2022-08-20T18:06:08.423Z,23.89
2022-08-20T18:10:16.619Z,23.71
2022-08-20T18:14:43.888Z,23.28
2022-08-20T18:18:56.599Z,22.78
2022-08-20T18:23:04.458Z,22.63
2022-08-20T18:27:14.848Z,22.77
2022-08-20T18:31:27.884Z,23.00
2022-08-20T18:35:35.150Z,23.17
2022-08-20T18:39:41.443Z,23.15
2022-08-20T18:43:44.600Z,23.11
2022-08-20T18:47:47.735Z,23.06
2022-08-20T18:51:51.766Z,22.68
2022-08-20T18:56:05.035Z,22.46
2022-08-20T19:00:11.921Z,22.14
2022-08-20T19:04:24.308Z,22.14
2022-08-20T19:08:40.084Z,22.09
2022-08-20T19:13:14.185Z,22.15
2022-08-20T19:17:24.736Z,22.07
2022-08-20T19:21:32.519Z,21.89
2022-08-20T19:25:37.831Z,21.72
2022-08-20T19:29:47.181Z,21.58
2022-08-20T19:33:51.604Z,21.55
2022-08-20T19:37:54.466Z,21.77
2022-08-20T19:41:59.513Z,21.86
2022-08-20T19:46:03.536Z,21.91
2022-08-20T19:50:18.318Z,21.94
2022-08-20T19:54:22.438Z,21.90
2022-08-20T19:58:26.653Z,21.60
2022-08-20T20:02:33.007Z,21.50
2022-08-20T20:06:38.763Z,21.52
2022-08-20T20:10:41.465Z,21.61
2022-08-20T20:14:45.305Z,21.50
2022-08-20T20:19:09.091Z,21.44
2022-08-20T20:23:15.866Z,21.34
2022-08-20T20:27:23.365Z,21.38
2022-08-20T20:31:30.242Z,21.42
2022-08-20T20:35:36.300Z,21.14
2022-08-20T20:39:41.676Z,20.67
2022-08-20T20:43:44.692Z,20.49
2022-08-20T20:47:50.140Z,20.46
2022-08-20T20:51:58.766Z,20.57
2022-08-20T20:56:01.422Z,20.80
2022-08-20T21:00:06.288Z,20.45
2022-08-20T21:04:09.337Z,20.18
2022-08-20T21:08:13.600Z,20.35
2022-08-20T21:12:16.202Z,20.41
2022-08-20T21:16:18.890Z,20.38
2022-08-20T21:20:22.508Z,20.34
2022-08-20T21:24:26.494Z,20.12
2022-08-20T21:28:29.816Z,19.90
2022-08-20T21:32:32.688Z,19.95
2022-08-20T21:36:35.560Z,19.80
2022-08-20T21:40:39.466Z,19.75
2022-08-20T21:44:47.955Z,19.72
2022-08-20T21:48:52.323Z,19.67
2022-08-20T21:52:59.134Z,19.67
2022-08-20T21:57:07.218Z,19.60
2022-08-20T22:01:09.859Z,19.22
2022-08-20T22:05:12.535Z,19.09
2022-08-20T22:09:15.858Z,19.06
2022-08-20T22:13:19.996Z,19.02
2022-08-20T22:17:22.584Z,18.85
2022-08-20T22:21:27.591Z,18.77
2022-08-20T22:25:30.365Z,18.71
2022-08-20T22:29:34.316Z,18.71
2022-08-20T22:33:37.344Z,18.75
2022-08-20T22:37:40.006Z,18.34
2022-08-20T22:41:42.565Z,18.02
2022-08-20T22:45:49.662Z,17.86
2022-08-20T22:49:52.334Z,17.69
2022-08-20T22:53:54.970Z,17.53
2022-08-20T22:57:57.620Z,17.47
2022-08-20T23:02:08.330Z,17.47
2022-08-20T23:06:11.879Z,17.45
2022-08-20T23:10:15.113Z,17.23
2022-08-20T23:14:17.641Z,17.13
2022-08-20T23:18:21.581Z,17.21
2022-08-20T23:22:24.169Z,17.23
2022-08-20T23:26:26.761Z,16.97
2022-08-20T23:30:29.951Z,16.94
2022-08-20T23:34:33.709Z,16.91
2022-08-20T23:38:36.531Z,16.86
2022-08-20T23:42:39.492Z,16.77
2022-08-20T23:46:42.075Z,16.59
2022-08-20T23:50:46.142Z,16.53
2022-08-20T23:54:48.731Z,16.33
2022-08-20T23:58:51.415Z,16.11
